Strona główna
METAR-TAF:

METAR-TAF

Lotnisko :

Odiham, Anglia

Szerokość geograficzna: 51-14N, Długość geograficzna: 000-57W, wysokość: 123 m

Aktualna obserwacja pogody

Raport powstał 1 godzina i 28 minut temu, godzina 03:50 UTC
Wiatr 12 kt od południe
Temperatura 12°C
Wilgotność 88%
Ciśnienie 1010 hPa
Widzialność 10 km lub więcej
słaby deszcz, mżawka

METAR: EGVO 060350Z AUTO 19012KT 9999 -RADZ BKN013/// 12/10 Q1010

czas: 06:18 (05:18 UTC)


TAF: brakujący

Obserwacja i prognoza pogody dla ponad 4000 lotnisk (raport METAR i TAF).

Dostępne stacje oznaczono żółtymi i czerwonymi punktami na mapie.

Najedź kursorem aby zobaczyć nazwę stacji.

Kliknij aby zobaczyć obserwacje i prognozy pogody.

Aby zmienić mapę: kliknij na zielony przycisk z czarnym krzyżykiem, aby powiększyć; na zielony przycisk z myślnikiem, aby pomniejszyć; na zielone strzałki, aby przejść do map sąsiednich.


METAR-TAF: